createdAt,value
2017-12-15T00:00:52.169Z,26.37
2017-12-15T00:03:19.018Z,24.58
2017-12-15T00:05:45.877Z,25.27
2017-12-15T00:08:12.731Z,21.55
2017-12-15T00:10:39.550Z,22.08
2017-12-15T00:13:06.414Z,22.52
2017-12-15T00:15:33.287Z,24.73
2017-12-15T00:18:00.139Z,23.92
2017-12-15T00:20:27.281Z,21.62
2017-12-15T00:22:54.106Z,22.98
2017-12-15T00:25:20.946Z,21.70
2017-12-15T00:27:48.123Z,21.48
2017-12-15T00:30:15.266Z,23.65
2017-12-15T00:32:42.102Z,24.23
2017-12-15T00:35:08.911Z,26.67
2017-12-15T00:37:35.737Z,27.20
2017-12-15T00:40:02.845Z,20.88
2017-12-15T00:42:29.664Z,24.63
2017-12-15T00:44:56.523Z,26.50
2017-12-15T00:47:23.688Z,27.20
2017-12-15T00:49:50.535Z,21.67
2017-12-15T00:52:17.372Z,22.30
2017-12-15T00:54:44.183Z,23.03
2017-12-15T00:57:11.017Z,24.85
2017-12-15T00:59:37.826Z,33.13
2017-12-15T01:02:04.699Z,23.27
2017-12-15T01:04:31.601Z,24.48
2017-12-15T01:06:58.410Z,24.30
2017-12-15T01:09:25.269Z,26.98
2017-12-15T01:11:52.419Z,23.40
2017-12-15T01:14:19.235Z,27.13
2017-12-15T01:16:46.315Z,26.45
2017-12-15T01:19:13.467Z,29.33
2017-12-15T01:21:40.313Z,24.25
2017-12-15T01:24:07.126Z,26.67
2017-12-15T01:26:34.302Z,25.40
2017-12-15T01:29:01.145Z,24.05
2017-12-15T01:31:27.983Z,24.90
2017-12-15T01:33:54.822Z,26.58
2017-12-15T01:36:21.984Z,27.37
2017-12-15T01:38:48.802Z,23.92
2017-12-15T01:41:15.992Z,27.08
2017-12-15T01:43:42.818Z,24.37
2017-12-15T01:46:09.634Z,29.20
2017-12-15T01:48:36.512Z,30.20
2017-12-15T01:51:03.655Z,25.92
2017-12-15T01:53:30.462Z,29.92
2017-12-15T01:55:57.289Z,24.83
2017-12-15T01:58:24.159Z,29.17
2017-12-15T02:00:51.031Z,27.52
2017-12-15T02:03:17.874Z,23.17
2017-12-15T02:05:45.023Z,26.27
2017-12-15T02:08:11.846Z,24.08
2017-12-15T02:10:38.681Z,27.65
2017-12-15T02:13:05.859Z,30.10
2017-12-15T02:15:33.011Z,25.37
2017-12-15T02:17:59.833Z,26.20
2017-12-15T02:20:26.650Z,28.17
2017-12-15T02:22:53.490Z,26.58
2017-12-15T02:25:20.335Z,25.98
2017-12-15T02:27:47.150Z,28.45
2017-12-15T02:30:13.994Z,28.65
2017-12-15T02:32:40.856Z,23.87
2017-12-15T02:35:07.960Z,24.35
2017-12-15T02:37:34.811Z,23.90
2017-12-15T02:40:01.648Z,26.17
2017-12-15T02:42:28.516Z,26.80
2017-12-15T02:44:55.351Z,25.33
2017-12-15T02:47:22.484Z,25.02
2017-12-15T02:49:49.348Z,24.08
2017-12-15T02:52:16.169Z,26.75
2017-12-15T02:54:43.011Z,25.02
2017-12-15T02:57:10.158Z,27.48
2017-12-15T02:59:37.315Z,27.02
2017-12-15T03:02:04.191Z,22.73
2017-12-15T03:04:31.045Z,21.63
2017-12-15T03:06:58.151Z,21.13
2017-12-15T03:09:25.298Z,20.85
2017-12-15T03:11:52.101Z,22.20
2017-12-15T03:14:18.950Z,21.30
2017-12-15T03:16:45.770Z,18.70
2017-12-15T03:19:12.581Z,20.95
2017-12-15T03:21:39.432Z,18.27
2017-12-15T03:24:06.260Z,17.43
2017-12-15T03:26:33.119Z,15.10
2017-12-15T03:28:59.969Z,19.50
2017-12-15T03:31:26.800Z,20.58
2017-12-15T03:33:53.929Z,20.75
2017-12-15T03:36:20.729Z,15.97
2017-12-15T03:38:47.842Z,17.15
2017-12-15T03:41:15.004Z,16.80
2017-12-15T03:43:41.833Z,20.15
2017-12-15T03:46:08.638Z,17.42
2017-12-15T03:48:35.438Z,15.70
2017-12-15T03:51:02.304Z,17.30
2017-12-15T03:53:29.393Z,15.07
2017-12-15T03:55:56.227Z,18.20
2017-12-15T03:58:23.075Z,17.37
2017-12-15T04:00:49.878Z,15.67
2017-12-15T04:03:16.970Z,17.37
2017-12-15T04:05:43.807Z,15.20
2017-12-15T04:08:10.667Z,16.80
2017-12-15T04:10:37.490Z,16.80
2017-12-15T04:13:04.335Z,18.50
2017-12-15T04:15:31.166Z,19.15
2017-12-15T04:17:58.015Z,18.20
2017-12-15T04:20:24.854Z,24.12
2017-12-15T04:22:51.692Z,17.20
2017-12-15T04:25:18.867Z,20.27
2017-12-15T04:27:46.014Z,17.62
2017-12-15T04:30:13.061Z,15.15
2017-12-15T04:32:39.923Z,18.02
2017-12-15T04:35:06.727Z,17.37
2017-12-15T04:37:33.798Z,16.08
2017-12-15T04:40:00.632Z,18.12
2017-12-15T04:42:27.690Z,17.70
2017-12-15T04:44:54.571Z,17.02
2017-12-15T04:47:21.398Z,15.25
2017-12-15T04:49:48.264Z,17.80
2017-12-15T04:52:15.375Z,18.33
2017-12-15T04:54:42.169Z,24.52
2017-12-15T04:57:09.023Z,16.08
2017-12-15T04:59:35.842Z,15.07
2017-12-15T05:02:02.674Z,15.30
2017-12-15T05:04:29.517Z,17.87
2017-12-15T05:06:56.340Z,18.00
2017-12-15T05:09:23.219Z,16.55
2017-12-15T05:11:50.060Z,18.45
2017-12-15T05:14:16.870Z,17.85
2017-12-15T05:16:43.718Z,19.30
2017-12-15T05:19:10.541Z,20.98
2017-12-15T05:21:37.694Z,19.30
2017-12-15T05:24:04.539Z,18.33
2017-12-15T05:26:31.357Z,19.05
2017-12-15T05:28:58.186Z,19.52
2017-12-15T05:31:25.033Z,19.02
2017-12-15T05:33:52.109Z,22.75
2017-12-15T05:36:18.921Z,27.77
2017-12-15T05:38:45.787Z,23.17
2017-12-15T05:41:12.627Z,25.12
2017-12-15T05:43:39.694Z,24.52
2017-12-15T05:46:06.563Z,22.40
2017-12-15T05:48:33.399Z,25.95
2017-12-15T05:51:00.206Z,28.60
2017-12-15T05:53:27.269Z,26.17
2017-12-15T05:55:54.431Z,24.87
2017-12-15T05:58:21.335Z,25.65
2017-12-15T06:00:48.418Z,29.60
2017-12-15T06:03:15.260Z,26.08
2017-12-15T06:05:42.122Z,22.60
2017-12-15T06:08:08.930Z,29.42
2017-12-15T06:10:35.773Z,27.05
2017-12-15T06:13:02.638Z,21.73
2017-12-15T06:15:29.446Z,26.83
2017-12-15T06:17:56.249Z,24.63
2017-12-15T06:20:23.077Z,26.20
2017-12-15T06:22:50.201Z,28.27
2017-12-15T06:25:17.362Z,25.90
2017-12-15T06:27:44.181Z,26.00
2017-12-15T06:30:11.034Z,27.55
2017-12-15T06:32:38.191Z,25.00
2017-12-15T06:35:05.083Z,25.70
2017-12-15T06:37:31.915Z,25.52
2017-12-15T06:39:59.031Z,23.33
2017-12-15T06:42:26.179Z,28.42
2017-12-15T06:44:53.000Z,26.77
2017-12-15T06:47:19.851Z,23.62
2017-12-15T06:49:46.703Z,23.85
2017-12-15T06:52:13.760Z,25.57
2017-12-15T06:54:40.913Z,28.33
2017-12-15T06:57:07.770Z,25.23
2017-12-15T06:59:34.582Z,22.33
2017-12-15T07:02:01.748Z,25.30
2017-12-15T07:04:28.794Z,27.05
2017-12-15T07:06:55.943Z,23.48
2017-12-15T07:09:22.770Z,23.17
2017-12-15T07:11:49.608Z,26.13
2017-12-15T07:14:16.780Z,27.08
2017-12-15T07:16:43.596Z,21.80
2017-12-15T07:19:10.670Z,22.27
2017-12-15T07:21:37.818Z,21.77
2017-12-15T07:24:04.668Z,21.17
2017-12-15T07:26:32.042Z,23.42
2017-12-15T07:28:59.176Z,23.43
2017-12-15T07:31:25.985Z,22.67
2017-12-15T07:33:53.166Z,28.05
2017-12-15T07:36:20.011Z,24.45
2017-12-15T07:38:46.825Z,25.35
2017-12-15T07:41:13.999Z,29.48
2017-12-15T07:43:40.822Z,20.35
2017-12-15T07:46:07.662Z,23.12
2017-12-15T07:48:34.838Z,22.42
2017-12-15T07:51:01.699Z,21.45
2017-12-15T07:53:28.527Z,25.70
2017-12-15T07:55:55.366Z,21.80
2017-12-15T07:58:22.181Z,23.45
2017-12-15T08:00:49.030Z,25.70
2017-12-15T08:03:15.839Z,23.87
2017-12-15T08:05:42.708Z,24.70
2017-12-15T08:08:09.576Z,24.92
2017-12-15T08:10:36.405Z,23.12
2017-12-15T08:13:03.272Z,24.45
2017-12-15T08:15:30.422Z,21.12
2017-12-15T08:17:57.256Z,23.23
2017-12-15T08:20:24.090Z,22.17
2017-12-15T08:22:51.259Z,20.15
2017-12-15T08:25:18.090Z,22.83
2017-12-15T08:27:44.903Z,24.25
2017-12-15T08:30:11.754Z,23.15
2017-12-15T08:32:38.604Z,22.87
2017-12-15T08:35:05.479Z,26.10
2017-12-15T08:37:32.301Z,22.02
2017-12-15T08:39:59.123Z,26.67
2017-12-15T08:42:25.934Z,23.25
2017-12-15T08:44:52.803Z,23.58
2017-12-15T08:47:19.662Z,25.27
2017-12-15T08:49:47.408Z,23.35
2017-12-15T08:52:14.246Z,26.00
2017-12-15T08:54:41.123Z,21.90
2017-12-15T08:57:07.975Z,23.08
2017-12-15T08:59:35.131Z,24.87
2017-12-15T09:02:01.965Z,22.52
2017-12-15T09:04:28.830Z,23.30
2017-12-15T09:06:55.687Z,19.37
2017-12-15T09:09:22.810Z,19.45
2017-12-15T09:11:49.964Z,20.92
2017-12-15T09:14:16.796Z,20.67
2017-12-15T09:16:43.643Z,21.10
2017-12-15T09:19:10.475Z,17.80
2017-12-15T09:21:37.351Z,18.30
2017-12-15T09:24:04.150Z,21.12
2017-12-15T09:26:31.374Z,23.33
2017-12-15T09:28:58.170Z,21.10
2017-12-15T09:31:25.275Z,20.67
2017-12-15T09:33:52.366Z,20.17
2017-12-15T09:36:19.204Z,18.98
2017-12-15T09:38:46.358Z,17.98
2017-12-15T09:41:13.159Z,18.00
2017-12-15T09:43:40.261Z,21.92
2017-12-15T09:46:07.403Z,21.48
2017-12-15T09:48:34.244Z,25.75
2017-12-15T09:51:01.118Z,22.90
2017-12-15T09:53:27.924Z,23.48
2017-12-15T09:55:54.763Z,25.45
2017-12-15T09:58:21.619Z,25.10
2017-12-15T10:00:48.434Z,26.13
2017-12-15T10:03:15.271Z,22.13
2017-12-15T10:05:42.114Z,25.62
2017-12-15T10:08:09.202Z,27.48
2017-12-15T10:10:36.280Z,27.87
2017-12-15T10:13:03.399Z,26.93
2017-12-15T10:15:30.207Z,27.67
2017-12-15T10:17:57.487Z,26.30
2017-12-15T10:20:24.601Z,30.73
2017-12-15T10:22:51.457Z,30.10
2017-12-15T10:25:18.635Z,27.17
2017-12-15T10:27:45.793Z,27.20
2017-12-15T10:30:12.630Z,25.75
2017-12-15T10:32:39.691Z,29.08
2017-12-15T10:35:06.502Z,27.17
2017-12-15T10:37:33.367Z,27.62
2017-12-15T10:40:00.255Z,28.60
2017-12-15T10:42:27.298Z,27.83
2017-12-15T10:44:54.139Z,26.27
2017-12-15T10:47:21.000Z,32.47
2017-12-15T10:49:48.095Z,29.23
2017-12-15T10:52:14.947Z,31.83
2017-12-15T10:54:41.750Z,27.87
2017-12-15T10:57:08.826Z,29.70
2017-12-15T10:59:35.693Z,29.73
2017-12-15T11:02:02.528Z,27.40
2017-12-15T11:04:29.375Z,30.77
2017-12-15T11:06:56.214Z,26.90
2017-12-15T11:09:23.078Z,31.00
2017-12-15T11:11:49.962Z,36.33
2017-12-15T11:14:16.780Z,33.38
2017-12-15T11:16:43.619Z,27.13
2017-12-15T11:19:10.717Z,29.50
2017-12-15T11:21:37.799Z,31.17
2017-12-15T11:24:04.651Z,28.98
2017-12-15T11:26:31.495Z,28.40
2017-12-15T11:28:58.608Z,29.40
2017-12-15T11:31:25.420Z,30.83
2017-12-15T11:33:52.268Z,30.73
2017-12-15T11:36:19.103Z,31.15
2017-12-15T11:38:45.939Z,33.05
2017-12-15T11:41:12.754Z,29.95
2017-12-15T11:43:39.585Z,29.30
2017-12-15T11:46:06.420Z,29.90
2017-12-15T11:48:33.286Z,29.10
2017-12-15T11:51:00.103Z,28.40
2017-12-15T11:53:26.911Z,30.50
2017-12-15T11:55:53.749Z,30.58
2017-12-15T11:58:20.567Z,28.98
2017-12-15T12:00:47.409Z,28.93
2017-12-15T12:03:14.230Z,29.80
2017-12-15T12:05:41.042Z,28.62
2017-12-15T12:08:08.105Z,30.75
2017-12-15T12:10:35.242Z,32.65
2017-12-15T12:13:02.399Z,29.80
2017-12-15T12:15:29.545Z,26.80
2017-12-15T12:17:56.420Z,30.42
2017-12-15T12:20:23.689Z,28.20
2017-12-15T12:22:50.559Z,27.73
2017-12-15T12:25:17.412Z,26.85
2017-12-15T12:27:44.587Z,30.02
2017-12-15T12:30:11.442Z,27.77
2017-12-15T12:32:38.359Z,27.43
2017-12-15T12:35:05.210Z,28.27
2017-12-15T12:37:32.362Z,32.70
2017-12-15T12:39:59.206Z,27.60
2017-12-15T12:42:26.356Z,27.62
2017-12-15T12:44:53.406Z,31.23
2017-12-15T12:47:20.268Z,34.40
2017-12-15T12:49:47.078Z,28.60
2017-12-15T12:52:14.134Z,33.72
2017-12-15T12:54:41.001Z,32.92
2017-12-15T12:57:07.806Z,30.92
2017-12-15T12:59:34.610Z,31.10
2017-12-15T13:02:01.454Z,32.87
2017-12-15T13:04:28.325Z,36.57
2017-12-15T13:06:55.507Z,35.00
2017-12-15T13:09:22.649Z,30.60
2017-12-15T13:11:49.518Z,36.80
2017-12-15T13:14:16.652Z,35.25
2017-12-15T13:16:43.528Z,34.65
2017-12-15T13:19:10.346Z,33.95
2017-12-15T13:21:37.190Z,35.70
2017-12-15T13:24:04.028Z,35.58
2017-12-15T13:26:30.888Z,35.75
2017-12-15T13:28:57.706Z,35.85
2017-12-15T13:31:24.597Z,35.95
2017-12-15T13:33:51.464Z,35.35
2017-12-15T13:36:18.303Z,37.00
2017-12-15T13:38:45.385Z,35.07
2017-12-15T13:41:12.250Z,39.30
2017-12-15T13:43:39.089Z,37.20
2017-12-15T13:46:06.859Z,43.38
2017-12-15T13:48:33.991Z,36.75
2017-12-15T13:51:02.475Z,38.27
2017-12-15T13:53:32.258Z,41.13
2017-12-15T13:55:59.169Z,38.35
2017-12-15T13:58:26.057Z,39.97
2017-12-15T14:00:52.902Z,38.65
2017-12-15T14:03:19.962Z,39.88
2017-12-15T14:05:46.817Z,39.05
2017-12-15T14:08:13.666Z,37.55
2017-12-15T14:10:40.507Z,36.35
2017-12-15T14:13:07.371Z,35.33
2017-12-15T14:15:34.231Z,36.38
2017-12-15T14:18:01.329Z,40.25
2017-12-15T14:20:28.145Z,38.22
2017-12-15T14:22:54.986Z,37.78
2017-12-15T14:25:21.793Z,36.75
2017-12-15T14:27:48.597Z,35.70
2017-12-15T14:30:15.443Z,37.30
2017-12-15T14:32:42.291Z,38.97
2017-12-15T14:35:09.130Z,38.60
2017-12-15T14:37:35.962Z,36.13
2017-12-15T14:40:02.822Z,34.42
2017-12-15T14:42:29.672Z,38.97
2017-12-15T14:44:56.536Z,39.95
2017-12-15T14:47:23.655Z,36.88
2017-12-15T14:49:50.466Z,34.42
2017-12-15T14:52:17.333Z,33.60
2017-12-15T14:54:44.167Z,38.40
2017-12-15T14:57:11.028Z,35.13
2017-12-15T14:59:37.878Z,36.30
2017-12-15T15:02:04.742Z,36.95
2017-12-15T15:04:31.562Z,36.17
2017-12-15T15:06:58.707Z,38.95
2017-12-15T15:09:25.514Z,37.78
2017-12-15T15:11:52.366Z,34.42
2017-12-15T15:14:19.210Z,38.83
2017-12-15T15:16:46.387Z,36.08
2017-12-15T15:19:13.219Z,38.53
2017-12-15T15:21:40.054Z,40.23
2017-12-15T15:24:06.907Z,39.53
2017-12-15T15:26:34.080Z,38.78
2017-12-15T15:29:01.211Z,38.50
2017-12-15T15:31:28.258Z,39.83
2017-12-15T15:33:55.077Z,36.67
2017-12-15T15:36:21.947Z,41.70
2017-12-15T15:38:48.833Z,41.20
2017-12-15T15:41:15.701Z,41.40
2017-12-15T15:43:42.558Z,41.33
2017-12-15T15:46:09.402Z,36.72
2017-12-15T15:48:36.296Z,40.88
2017-12-15T15:51:03.176Z,39.75
2017-12-15T15:53:30.047Z,43.70
2017-12-15T15:55:57.202Z,40.33
2017-12-15T15:58:24.079Z,45.00
2017-12-15T16:00:50.956Z,39.97
2017-12-15T16:03:17.820Z,38.97
2017-12-15T16:05:44.687Z,41.93
2017-12-15T16:08:11.559Z,44.15
2017-12-15T16:10:38.420Z,42.70
2017-12-15T16:13:05.270Z,40.20
2017-12-15T16:15:32.115Z,38.45
2017-12-15T16:17:58.947Z,40.25
2017-12-15T16:20:26.041Z,43.45
2017-12-15T16:22:52.859Z,55.45
2017-12-15T16:25:19.674Z,43.33
2017-12-15T16:27:46.576Z,41.20
2017-12-15T16:30:13.428Z,39.20
2017-12-15T16:32:40.259Z,39.25
2017-12-15T16:35:07.346Z,40.10
2017-12-15T16:37:34.202Z,38.95
2017-12-15T16:40:01.254Z,38.92
2017-12-15T16:42:28.350Z,38.72
2017-12-15T16:44:55.192Z,37.05
2017-12-15T16:47:22.013Z,37.25
2017-12-15T16:49:48.870Z,42.45
2017-12-15T16:52:15.748Z,41.53
2017-12-15T16:54:42.654Z,36.83
2017-12-15T16:57:09.832Z,35.10
2017-12-15T16:59:36.653Z,34.63
2017-12-15T17:02:03.553Z,37.95
2017-12-15T17:04:30.564Z,38.63
2017-12-15T17:06:57.410Z,40.10
2017-12-15T17:09:24.283Z,38.43
2017-12-15T17:11:51.258Z,35.00
2017-12-15T17:14:18.096Z,35.10
2017-12-15T17:16:44.969Z,36.77
2017-12-15T17:19:11.827Z,36.55
2017-12-15T17:21:38.633Z,39.75
2017-12-15T17:24:05.729Z,33.83
2017-12-15T17:26:32.626Z,36.70
2017-12-15T17:28:59.511Z,40.50
2017-12-15T17:31:26.317Z,38.13
2017-12-15T17:33:54.522Z,32.35
2017-12-15T17:36:21.515Z,36.80
2017-12-15T17:38:48.330Z,36.08
2017-12-15T17:41:15.451Z,32.20
2017-12-15T17:43:42.298Z,36.60
2017-12-15T17:46:09.447Z,38.58
2017-12-15T17:48:36.320Z,36.65
2017-12-15T17:51:03.175Z,39.00
2017-12-15T17:53:30.045Z,36.13
2017-12-15T17:55:57.244Z,35.67
2017-12-15T17:58:24.083Z,37.50
2017-12-15T18:00:51.225Z,38.85
2017-12-15T18:03:18.098Z,41.47
2017-12-15T18:05:44.956Z,38.08
2017-12-15T18:08:11.852Z,37.47
2017-12-15T18:10:38.719Z,37.92
2017-12-15T18:13:05.559Z,41.40
2017-12-15T18:15:32.372Z,43.17
2017-12-15T18:17:59.239Z,39.85
2017-12-15T18:20:26.107Z,39.33
2017-12-15T18:22:52.925Z,42.10
2017-12-15T18:25:19.777Z,50.70
2017-12-15T18:27:46.590Z,44.58
2017-12-15T18:30:13.649Z,44.83
2017-12-15T18:32:40.494Z,39.90
2017-12-15T18:35:07.334Z,40.53
2017-12-15T18:37:34.179Z,42.15
2017-12-15T18:40:01.056Z,40.00
2017-12-15T18:42:27.902Z,42.28
2017-12-15T18:44:54.743Z,42.22
2017-12-15T18:47:21.636Z,42.70
2017-12-15T18:49:48.462Z,43.50
2017-12-15T18:52:15.538Z,44.45
2017-12-15T18:54:42.389Z,41.17
2017-12-15T18:57:09.239Z,39.63
2017-12-15T18:59:36.064Z,39.77
2017-12-15T19:02:02.908Z,41.42
2017-12-15T19:04:29.773Z,46.65
2017-12-15T19:06:56.638Z,45.70
2017-12-15T19:09:23.506Z,41.55
2017-12-15T19:11:50.337Z,45.58
2017-12-15T19:14:17.204Z,41.85
2017-12-15T19:16:44.107Z,45.90
2017-12-15T19:19:10.934Z,43.55
2017-12-15T19:21:37.777Z,42.97
2017-12-15T19:24:04.705Z,42.75
2017-12-15T19:26:31.782Z,42.72
2017-12-15T19:28:58.660Z,43.83
2017-12-15T19:31:25.517Z,45.58
2017-12-15T19:33:52.462Z,47.90
2017-12-15T19:36:19.297Z,44.05
2017-12-15T19:38:46.171Z,44.53
2017-12-15T19:41:13.006Z,41.33
2017-12-15T19:43:40.065Z,43.30
2017-12-15T19:46:07.008Z,46.92
2017-12-15T19:48:34.165Z,46.58
2017-12-15T19:51:01.013Z,39.95
2017-12-15T19:53:27.888Z,41.10
2017-12-15T19:55:54.727Z,41.55
2017-12-15T19:58:21.553Z,50.25
2017-12-15T20:00:48.416Z,45.22
2017-12-15T20:03:15.232Z,42.05
2017-12-15T20:05:42.379Z,43.75
2017-12-15T20:08:09.246Z,45.05
2017-12-15T20:10:36.261Z,42.47
2017-12-15T20:13:03.134Z,44.37
2017-12-15T20:15:29.997Z,44.40
2017-12-15T20:17:56.857Z,44.67
2017-12-15T20:20:23.673Z,45.67
2017-12-15T20:22:50.537Z,40.88
2017-12-15T20:25:17.366Z,56.30
2017-12-15T20:27:44.469Z,52.03
2017-12-15T20:30:11.367Z,60.97
2017-12-15T20:32:38.242Z,64.75
2017-12-15T20:35:05.310Z,48.95
2017-12-15T20:37:32.458Z,49.70
2017-12-15T20:39:59.615Z,50.67
2017-12-15T20:42:26.447Z,47.83
2017-12-15T20:44:53.301Z,43.90
2017-12-15T20:47:20.148Z,45.45
2017-12-15T20:49:46.986Z,42.45
2017-12-15T20:52:13.867Z,39.47
2017-12-15T20:54:40.767Z,39.63
2017-12-15T20:57:07.563Z,42.15
2017-12-15T20:59:34.443Z,42.33
2017-12-15T21:02:01.502Z,46.85
2017-12-15T21:04:28.326Z,44.13
2017-12-15T21:06:55.502Z,44.05
2017-12-15T21:09:22.342Z,43.05
2017-12-15T21:11:49.225Z,46.03
2017-12-15T21:14:16.444Z,41.47
2017-12-15T21:16:43.316Z,40.80
2017-12-15T21:19:10.544Z,36.88
2017-12-15T21:21:37.427Z,43.07
2017-12-15T21:24:04.240Z,41.93
2017-12-15T21:26:32.143Z,41.77
2017-12-15T21:28:59.447Z,41.20
2017-12-15T21:31:26.274Z,38.80
2017-12-15T21:33:53.086Z,42.38
2017-12-15T21:36:19.926Z,40.47
2017-12-15T21:38:46.784Z,41.63
2017-12-15T21:41:13.624Z,42.35
2017-12-15T21:43:40.812Z,42.78
2017-12-15T21:46:07.958Z,44.33
2017-12-15T21:48:34.785Z,41.55
2017-12-15T21:51:01.631Z,45.25
2017-12-15T21:53:28.511Z,38.70
2017-12-15T21:55:55.401Z,38.05
2017-12-15T21:58:22.271Z,42.90
2017-12-15T22:00:49.114Z,42.08
2017-12-15T22:03:16.282Z,51.40
2017-12-15T22:05:43.129Z,44.05
2017-12-15T22:08:09.968Z,44.72
2017-12-15T22:10:36.860Z,46.22
2017-12-15T22:13:03.755Z,46.47
2017-12-15T22:15:30.899Z,46.00
2017-12-15T22:17:58.056Z,43.65
2017-12-15T22:20:25.199Z,41.43
2017-12-15T22:22:52.038Z,36.28
2017-12-15T22:25:18.880Z,41.35
2017-12-15T22:27:46.034Z,38.03
2017-12-15T22:30:12.918Z,37.47
2017-12-15T22:32:39.746Z,38.67
2017-12-15T22:35:06.608Z,35.97
2017-12-15T22:37:33.423Z,33.75
2017-12-15T22:40:00.233Z,38.28
2017-12-15T22:42:27.071Z,43.47
2017-12-15T22:44:53.904Z,37.30
2017-12-15T22:47:20.718Z,34.90
2017-12-15T22:49:47.596Z,37.03
2017-12-15T22:52:14.674Z,35.33
2017-12-15T22:54:41.713Z,32.45
2017-12-15T22:57:08.560Z,38.65
2017-12-15T22:59:35.428Z,39.97
2017-12-15T23:02:02.223Z,36.67
2017-12-15T23:04:29.095Z,35.23
2017-12-15T23:06:55.936Z,35.20
2017-12-15T23:09:22.981Z,40.40
2017-12-15T23:11:49.867Z,36.72
2017-12-15T23:14:16.973Z,37.67
2017-12-15T23:16:43.831Z,36.60
2017-12-15T23:19:10.685Z,39.55
2017-12-15T23:21:37.490Z,34.55
2017-12-15T23:24:04.339Z,37.35
2017-12-15T23:26:31.168Z,34.20
2017-12-15T23:28:58.007Z,39.20
2017-12-15T23:31:25.078Z,37.00
2017-12-15T23:33:51.939Z,33.65
2017-12-15T23:36:18.783Z,40.58
2017-12-15T23:38:45.923Z,36.90
2017-12-15T23:41:12.791Z,37.92
2017-12-15T23:43:39.910Z,38.15
2017-12-15T23:46:06.737Z,35.33
2017-12-15T23:48:33.659Z,37.13
2017-12-15T23:51:00.855Z,38.28
2017-12-15T23:53:27.698Z,36.40
2017-12-15T23:56:00.687Z,33.00
2017-12-15T23:58:27.498Z,41.10
